createdAt,value
2018-05-16T00:00:51.871Z,9.00
2018-05-16T00:02:27.002Z,8.33
2018-05-16T00:04:02.189Z,8.83
2018-05-16T00:05:37.315Z,8.93
2018-05-16T00:07:13.192Z,8.70
2018-05-16T00:08:49.033Z,9.77
2018-05-16T00:10:24.803Z,8.90
2018-05-16T00:11:59.970Z,9.67
2018-05-16T00:13:37.794Z,9.67
2018-05-16T00:15:14.134Z,9.33
2018-05-16T00:16:49.259Z,9.50
2018-05-16T00:18:25.131Z,9.40
2018-05-16T00:20:00.247Z,10.20
2018-05-16T00:21:35.378Z,9.67
2018-05-16T00:23:11.204Z,10.20
2018-05-16T00:24:46.339Z,10.33
2018-05-16T00:26:21.469Z,10.03
2018-05-16T00:27:57.385Z,10.00
2018-05-16T00:29:33.190Z,9.47
2018-05-16T00:31:08.399Z,10.23
2018-05-16T00:32:43.517Z,12.47
2018-05-16T00:34:18.620Z,12.47
2018-05-16T00:35:53.783Z,13.23
2018-05-16T00:37:28.913Z,13.10
2018-05-16T00:39:04.513Z,15.77
2018-05-16T00:40:39.671Z,17.17
2018-05-16T00:42:14.750Z,15.77
2018-05-16T00:43:49.871Z,14.70
2018-05-16T00:45:25.815Z,14.97
2018-05-16T00:47:00.950Z,14.50
2018-05-16T00:48:36.105Z,14.87
2018-05-16T00:50:12.052Z,14.27
2018-05-16T00:51:47.144Z,15.07
2018-05-16T00:53:23.450Z,14.67
2018-05-16T00:54:59.389Z,14.20
2018-05-16T00:56:34.499Z,14.23
2018-05-16T00:58:10.411Z,13.60
2018-05-16T00:59:46.302Z,15.40
2018-05-16T01:01:21.429Z,13.60
2018-05-16T01:02:56.587Z,15.60
2018-05-16T01:04:31.701Z,15.20
2018-05-16T01:06:06.886Z,14.23
2018-05-16T01:07:42.757Z,14.10
2018-05-16T01:09:19.110Z,14.40
2018-05-16T01:10:54.268Z,14.37
2018-05-16T01:12:29.870Z,13.07
2018-05-16T01:14:04.962Z,14.23
2018-05-16T01:15:40.118Z,13.53
2018-05-16T01:17:15.232Z,13.57
2018-05-16T01:18:51.072Z,13.77
2018-05-16T01:20:26.201Z,14.43
2018-05-16T01:22:01.367Z,14.47
2018-05-16T01:23:36.511Z,14.17
2018-05-16T01:25:13.075Z,14.13
2018-05-16T01:26:48.287Z,14.80
2018-05-16T01:28:23.975Z,13.23
2018-05-16T01:29:59.096Z,15.17
2018-05-16T01:31:34.223Z,14.43
2018-05-16T01:33:09.297Z,15.07
2018-05-16T01:34:44.480Z,15.30
2018-05-16T01:36:19.600Z,16.07
2018-05-16T01:37:55.531Z,15.57
2018-05-16T01:39:30.609Z,15.47
2018-05-16T01:41:05.762Z,16.13
2018-05-16T01:42:40.910Z,15.67
2018-05-16T01:44:16.075Z,15.53
2018-05-16T01:45:53.014Z,15.73
2018-05-16T01:47:28.148Z,16.30
2018-05-16T01:49:22.982Z,15.60
2018-05-16T01:50:58.835Z,13.60
2018-05-16T01:52:33.963Z,15.40
2018-05-16T01:54:09.102Z,14.43
2018-05-16T01:55:44.975Z,16.10
2018-05-16T01:57:21.998Z,15.93
2018-05-16T01:58:57.086Z,16.80
2018-05-16T02:00:32.213Z,16.27
2018-05-16T02:02:07.320Z,17.10
2018-05-16T02:03:42.458Z,20.47
2018-05-16T02:05:17.613Z,18.13
2018-05-16T02:06:52.713Z,17.60
2018-05-16T02:08:28.561Z,20.60
2018-05-16T02:10:03.816Z,17.37
2018-05-16T02:11:39.229Z,18.40
2018-05-16T02:13:15.164Z,18.63
2018-05-16T02:14:50.292Z,19.87
2018-05-16T02:16:26.202Z,19.97
2018-05-16T02:18:01.301Z,18.50
2018-05-16T02:19:37.161Z,19.03
2018-05-16T02:21:12.316Z,18.60
2018-05-16T02:22:48.191Z,19.30
2018-05-16T02:24:24.134Z,20.17
2018-05-16T02:25:59.316Z,19.67
2018-05-16T02:27:34.452Z,18.10
2018-05-16T02:29:10.703Z,19.10
2018-05-16T02:30:46.855Z,17.70
2018-05-16T02:32:22.730Z,17.43
2018-05-16T02:33:57.939Z,17.17
2018-05-16T02:35:33.037Z,18.57
2018-05-16T02:37:08.195Z,19.40
2018-05-16T02:38:43.460Z,17.97
2018-05-16T02:40:18.568Z,18.40
2018-05-16T02:41:54.020Z,19.43
2018-05-16T02:43:29.934Z,18.83
2018-05-16T02:45:05.087Z,19.50
2018-05-16T02:46:40.969Z,18.00
2018-05-16T02:48:16.844Z,18.13
2018-05-16T02:49:51.948Z,18.37
2018-05-16T02:51:27.124Z,19.07
2018-05-16T02:53:02.275Z,18.17
2018-05-16T02:54:37.360Z,19.37
2018-05-16T02:56:12.467Z,19.87
2018-05-16T02:57:47.568Z,20.37
2018-05-16T02:59:23.487Z,21.03
2018-05-16T03:00:58.593Z,21.00
2018-05-16T03:02:34.534Z,20.50
2018-05-16T03:04:09.677Z,20.80
2018-05-16T03:05:45.641Z,20.60
2018-05-16T03:07:21.619Z,21.50
2018-05-16T03:08:56.748Z,22.43
2018-05-16T03:10:31.870Z,21.20
2018-05-16T03:12:08.639Z,21.93
2018-05-16T03:13:43.847Z,22.27
2018-05-16T03:15:19.802Z,23.90
2018-05-16T03:16:54.925Z,21.67
2018-05-16T03:18:30.751Z,21.23
2018-05-16T03:20:05.869Z,21.63
2018-05-16T03:21:41.800Z,23.07
2018-05-16T03:23:16.980Z,20.60
2018-05-16T03:24:52.090Z,20.27
2018-05-16T03:26:27.187Z,19.03
2018-05-16T03:28:03.040Z,20.73
2018-05-16T03:29:38.184Z,19.47
2018-05-16T03:31:13.290Z,20.60
2018-05-16T03:32:48.976Z,21.97
2018-05-16T03:34:24.849Z,20.33
2018-05-16T03:36:04.210Z,21.27
2018-05-16T03:37:39.315Z,20.57
2018-05-16T03:39:15.208Z,20.77
2018-05-16T03:40:50.340Z,20.90
2018-05-16T03:42:25.453Z,20.57
2018-05-16T03:44:01.391Z,19.47
2018-05-16T03:45:36.496Z,18.93
2018-05-16T03:47:12.361Z,18.57
2018-05-16T03:48:47.494Z,18.77
2018-05-16T03:50:23.321Z,20.10
2018-05-16T03:51:59.260Z,20.70
2018-05-16T03:53:34.320Z,19.17
2018-05-16T03:55:09.454Z,18.37
2018-05-16T03:56:45.356Z,17.80
2018-05-16T03:58:38.116Z,19.03
2018-05-16T04:00:31.782Z,19.40
2018-05-16T04:02:24.715Z,19.23
2018-05-16T04:04:17.628Z,19.13
2018-05-16T04:05:52.790Z,18.43
2018-05-16T04:07:29.869Z,20.67
2018-05-16T04:09:05.691Z,18.37
2018-05-16T04:10:41.772Z,20.97
2018-05-16T04:12:16.892Z,19.90
2018-05-16T04:13:52.753Z,18.93
2018-05-16T04:15:27.877Z,17.60
2018-05-16T04:17:03.030Z,20.67
2018-05-16T04:18:38.167Z,18.03
2018-05-16T04:20:13.296Z,18.87
2018-05-16T04:21:48.414Z,20.33
2018-05-16T04:23:23.783Z,19.83
2018-05-16T04:24:59.670Z,18.83
2018-05-16T04:26:34.771Z,18.13
2018-05-16T04:28:09.937Z,17.53
2018-05-16T04:29:45.061Z,16.33
2018-05-16T04:31:20.187Z,16.70
2018-05-16T04:32:55.295Z,18.27
2018-05-16T04:34:30.847Z,16.23
2018-05-16T04:36:05.976Z,15.40
2018-05-16T04:37:41.836Z,15.07
2018-05-16T04:39:17.048Z,16.47
2018-05-16T04:40:52.544Z,15.53
2018-05-16T04:42:27.984Z,17.67
2018-05-16T04:44:03.995Z,16.83
2018-05-16T04:45:39.147Z,17.20
2018-05-16T04:47:15.031Z,16.77
2018-05-16T04:48:50.924Z,16.37
2018-05-16T04:50:27.418Z,17.70
2018-05-16T04:52:03.303Z,16.27
2018-05-16T04:53:39.187Z,16.57
2018-05-16T04:55:16.356Z,15.53
2018-05-16T04:56:52.376Z,16.20
2018-05-16T04:58:28.649Z,15.37
2018-05-16T05:00:04.997Z,16.13
2018-05-16T05:01:40.510Z,16.33
2018-05-16T05:03:15.652Z,16.77
2018-05-16T05:04:51.596Z,15.03
2018-05-16T05:06:26.986Z,17.63
2018-05-16T05:08:09.590Z,18.20
2018-05-16T05:09:45.365Z,18.90
2018-05-16T05:11:21.590Z,17.43
2018-05-16T05:13:00.598Z,20.10
2018-05-16T05:14:36.704Z,20.10
2018-05-16T05:16:12.688Z,20.47
2018-05-16T05:17:47.801Z,20.13
2018-05-16T05:19:22.919Z,21.33
2018-05-16T05:20:58.020Z,22.13
2018-05-16T05:22:33.926Z,21.40
2018-05-16T05:24:09.166Z,23.33
2018-05-16T05:25:45.095Z,23.83
2018-05-16T05:27:20.902Z,24.53
2018-05-16T05:28:56.172Z,25.07
2018-05-16T05:30:32.515Z,28.10
2018-05-16T05:32:07.853Z,26.37
2018-05-16T05:33:42.937Z,27.33
2018-05-16T05:35:18.035Z,26.93
2018-05-16T05:36:53.204Z,28.90
2018-05-16T05:38:29.374Z,26.63
2018-05-16T05:40:04.517Z,28.07
2018-05-16T05:41:39.983Z,29.10
2018-05-16T05:43:15.906Z,28.83
2018-05-16T05:44:51.621Z,30.13
2018-05-16T05:46:27.131Z,29.47
2018-05-16T05:48:02.263Z,28.80
2018-05-16T05:49:37.450Z,29.27
2018-05-16T05:51:12.586Z,29.13
2018-05-16T05:52:48.589Z,30.00
2018-05-16T05:54:23.702Z,30.63
2018-05-16T05:55:58.838Z,30.00
2018-05-16T05:57:33.956Z,29.33
2018-05-16T05:59:11.055Z,28.63
2018-05-16T06:00:46.986Z,29.13
2018-05-16T06:02:24.227Z,28.97
2018-05-16T06:03:59.422Z,27.63
2018-05-16T06:05:34.849Z,28.70
2018-05-16T06:07:10.283Z,27.60
2018-05-16T06:08:45.564Z,29.73
2018-05-16T06:10:31.419Z,28.30
2018-05-16T06:12:07.784Z,27.67
2018-05-16T06:13:43.001Z,28.33
2018-05-16T06:24:21.767Z,29.10
2018-05-16T06:25:56.976Z,31.57
2018-05-16T06:27:32.829Z,30.57
2018-05-16T06:29:07.940Z,31.17
2018-05-16T06:30:43.039Z,30.53
2018-05-16T06:32:18.173Z,30.40
2018-05-16T06:33:53.282Z,28.77
2018-05-16T06:35:33.719Z,29.57
2018-05-16T06:37:14.862Z,28.03
2018-05-16T06:38:55.205Z,30.30
2018-05-16T06:40:31.285Z,30.57
2018-05-16T06:42:07.170Z,32.70
2018-05-16T06:43:42.736Z,30.90
2018-05-16T06:45:25.873Z,30.67
2018-05-16T06:47:00.964Z,31.93
2018-05-16T06:48:38.288Z,32.87
2018-05-16T06:50:14.397Z,33.13
2018-05-16T06:51:49.546Z,32.73
2018-05-16T06:53:24.651Z,32.40
2018-05-16T06:55:00.268Z,35.97
2018-05-16T06:56:36.908Z,36.97
2018-05-16T06:58:12.788Z,37.27
2018-05-16T06:59:47.947Z,37.00
2018-05-16T07:01:23.043Z,36.43
2018-05-16T07:02:58.143Z,35.67
2018-05-16T07:04:34.491Z,33.20
2018-05-16T07:06:17.390Z,32.97
2018-05-16T07:07:52.604Z,36.07
2018-05-16T07:09:27.888Z,36.30
2018-05-16T07:11:03.423Z,34.43
2018-05-16T07:12:38.654Z,34.77
2018-05-16T07:14:15.621Z,33.83
2018-05-16T07:15:51.208Z,33.80
2018-05-16T07:17:26.395Z,32.37
2018-05-16T07:19:02.122Z,35.13
2018-05-16T07:20:37.304Z,35.10
2018-05-16T07:22:12.421Z,35.23
2018-05-16T07:23:47.530Z,35.97
2018-05-16T07:25:22.712Z,35.70
2018-05-16T07:26:59.053Z,38.77
2018-05-16T07:28:34.166Z,37.80
2018-05-16T07:30:09.394Z,37.30
2018-05-16T07:31:44.517Z,37.60
2018-05-16T07:33:19.669Z,40.37
2018-05-16T07:34:54.772Z,39.00
2018-05-16T07:36:30.780Z,36.87
2018-05-16T07:38:06.797Z,38.53
2018-05-16T07:39:43.520Z,36.97
2018-05-16T07:41:20.716Z,36.13
2018-05-16T07:42:56.865Z,37.17
2018-05-16T07:44:32.116Z,35.17
2018-05-16T07:46:15.484Z,38.03
2018-05-16T07:47:50.635Z,37.50
2018-05-16T07:49:26.002Z,40.50
2018-05-16T07:51:01.174Z,38.30
2018-05-16T07:52:39.877Z,39.37
2018-05-16T07:54:15.018Z,41.00
2018-05-16T07:55:50.272Z,42.43
2018-05-16T07:57:25.529Z,40.53
2018-05-16T07:59:28.434Z,41.37
2018-05-16T08:01:03.753Z,38.60
2018-05-16T08:02:38.948Z,40.90
2018-05-16T08:04:14.826Z,42.07
2018-05-16T08:05:50.045Z,40.77
2018-05-16T08:07:28.270Z,39.37
2018-05-16T08:09:04.129Z,38.73
2018-05-16T08:10:39.741Z,40.33
2018-05-16T08:12:15.594Z,35.10
2018-05-16T08:13:50.777Z,36.33
2018-05-16T08:15:25.914Z,36.37
2018-05-16T08:17:01.080Z,37.30
2018-05-16T08:18:37.636Z,35.20
2018-05-16T08:20:13.632Z,34.70
2018-05-16T08:21:48.920Z,36.30
2018-05-16T08:23:49.265Z,36.20
2018-05-16T08:25:26.784Z,34.07
2018-05-16T08:27:14.867Z,33.97
2018-05-16T08:28:50.577Z,30.57
2018-05-16T08:30:40.430Z,30.23
2018-05-16T08:32:15.542Z,31.63
2018-05-16T08:33:50.667Z,29.33
2018-05-16T08:35:55.757Z,28.60
2018-05-16T08:37:30.929Z,29.77
2018-05-16T08:39:07.383Z,32.83
2018-05-16T08:40:42.747Z,34.30
2018-05-16T08:42:33.068Z,32.60
2018-05-16T08:45:52.478Z,31.73
2018-05-16T08:47:51.448Z,34.87
2018-05-16T08:49:26.762Z,35.47
2018-05-16T08:52:49.993Z,35.30
2018-05-16T08:54:25.787Z,34.83
2018-05-16T08:56:01.842Z,36.93
2018-05-16T08:57:37.116Z,36.07
2018-05-16T08:59:12.541Z,39.27
2018-05-16T09:10:09.000Z,38.00
2018-05-16T09:11:46.089Z,37.47
2018-05-16T09:13:21.552Z,37.60
2018-05-16T09:14:57.269Z,37.13
2018-05-16T09:16:32.393Z,33.83
2018-05-16T09:18:07.915Z,37.23
2018-05-16T09:19:43.033Z,35.93
2018-05-16T09:21:18.177Z,35.70
2018-05-16T09:22:54.003Z,37.33
2018-05-16T09:24:30.098Z,35.47
2018-05-16T09:26:05.567Z,35.00
2018-05-16T09:27:41.853Z,36.13
2018-05-16T09:29:17.810Z,35.97
2018-05-16T09:30:53.572Z,37.40
2018-05-16T09:32:29.705Z,36.23
2018-05-16T09:34:07.242Z,38.73
2018-05-16T09:35:43.020Z,38.53
2018-05-16T09:37:20.066Z,37.80
2018-05-16T09:39:01.045Z,37.03
2018-05-16T09:40:42.465Z,36.70
2018-05-16T09:42:23.770Z,36.80
2018-05-16T09:44:04.285Z,35.07
2018-05-16T09:45:50.050Z,35.97
2018-05-16T09:47:28.600Z,34.70
2018-05-16T09:49:05.658Z,35.13
2018-05-16T09:50:43.654Z,32.13
2018-05-16T09:52:19.598Z,34.93
2018-05-16T09:54:09.074Z,32.17
2018-05-16T09:55:56.770Z,32.47
2018-05-16T10:00:09.328Z,34.97
2018-05-16T10:01:45.248Z,33.63
2018-05-16T10:03:20.377Z,35.30
2018-05-16T10:04:56.113Z,33.30
2018-05-16T10:06:32.151Z,33.10
2018-05-16T10:08:08.852Z,32.77
2018-05-16T10:09:52.656Z,34.93
2018-05-16T10:11:28.745Z,31.50
2018-05-16T10:13:06.231Z,31.90
2018-05-16T10:14:42.097Z,32.80
2018-05-16T10:16:17.289Z,31.53
2018-05-16T10:17:52.488Z,31.10
2018-05-16T10:19:27.963Z,30.53
2018-05-16T10:21:05.307Z,28.53
2018-05-16T10:22:42.159Z,31.03
2018-05-16T10:24:18.281Z,27.77
2018-05-16T10:25:53.497Z,28.20
2018-05-16T10:27:31.209Z,28.47
2018-05-16T10:29:08.218Z,29.90
2018-05-16T10:30:48.353Z,31.17
2018-05-16T10:32:24.327Z,31.13
2018-05-16T10:34:01.638Z,28.03
2018-05-16T10:35:53.553Z,29.70
2018-05-16T10:39:40.907Z,30.13
2018-05-16T10:41:16.797Z,30.73
2018-05-16T10:42:52.114Z,29.00
2018-05-16T10:44:28.417Z,29.50
2018-05-16T10:46:09.486Z,27.13
2018-05-16T10:47:44.832Z,27.17
2018-05-16T10:49:20.124Z,25.53
2018-05-16T10:50:57.512Z,25.80
2018-05-16T10:52:34.382Z,26.87
2018-05-16T10:54:16.159Z,26.47
2018-05-16T10:55:53.486Z,27.00
2018-05-16T10:57:30.821Z,26.37
2018-05-16T10:59:06.068Z,26.33
2018-05-16T16:35:21.942Z,14.27
2018-05-16T16:36:57.056Z,13.47
2018-05-16T16:38:35.686Z,12.87
2018-05-16T16:40:11.330Z,14.67
2018-05-16T16:41:47.292Z,13.33
2018-05-16T16:43:22.396Z,15.27
2018-05-16T16:44:57.545Z,14.63
2018-05-16T16:46:32.629Z,14.80
2018-05-16T16:48:07.790Z,13.17
2018-05-16T16:49:42.915Z,14.00
2018-05-16T16:51:18.044Z,13.00
2018-05-16T16:52:53.256Z,12.13
2018-05-16T16:54:33.897Z,12.77
2018-05-16T16:56:08.927Z,12.40
2018-05-16T16:57:44.089Z,12.37
2018-05-16T16:59:19.220Z,8.57
2018-05-16T17:00:55.396Z,11.30
2018-05-16T17:02:30.585Z,11.33
2018-05-16T17:04:05.714Z,8.80
2018-05-16T17:05:40.823Z,6.80
2018-05-16T17:07:16.819Z,7.13
2018-05-16T17:08:53.019Z,7.37
2018-05-16T17:10:28.769Z,8.13
2018-05-16T17:12:03.952Z,8.63
2018-05-16T17:13:40.538Z,7.73
2018-05-16T17:15:15.857Z,7.07
2018-05-16T17:16:51.382Z,8.23
2018-05-16T17:18:27.619Z,7.30
2018-05-16T17:20:05.617Z,7.70
2018-05-16T17:21:42.587Z,7.13
2018-05-16T17:23:19.236Z,7.23
2018-05-16T17:24:55.093Z,7.30
2018-05-16T17:26:31.442Z,7.33
2018-05-16T17:28:06.647Z,6.77
2018-05-16T17:29:42.593Z,7.43
2018-05-16T17:31:19.672Z,6.90
2018-05-16T17:32:57.195Z,7.10
2018-05-16T17:34:33.151Z,6.30
2018-05-16T17:36:09.544Z,7.23
2018-05-16T17:37:50.741Z,7.67
2018-05-16T17:39:25.873Z,6.90
2018-05-16T17:41:00.973Z,7.27
2018-05-16T17:42:36.120Z,6.90
2018-05-16T17:44:11.234Z,7.43
2018-05-16T17:45:47.199Z,7.20
2018-05-16T17:47:22.637Z,7.37
2018-05-16T17:49:03.814Z,6.77
2018-05-16T17:50:39.504Z,7.90
2018-05-16T17:52:15.844Z,7.50
2018-05-16T17:53:51.206Z,6.77
2018-05-16T17:55:30.701Z,7.43
2018-05-16T17:57:06.435Z,6.13
2018-05-16T17:58:42.305Z,7.43
2018-05-16T18:00:18.469Z,6.90
2018-05-16T18:01:55.486Z,7.53
2018-05-16T18:03:30.649Z,6.73
2018-05-16T18:05:06.605Z,7.77
2018-05-16T18:06:41.788Z,6.80
2018-05-16T18:08:16.985Z,7.63
2018-05-16T18:09:52.317Z,6.90
2018-05-16T18:11:27.440Z,7.00
2018-05-16T18:26:28.921Z,8.50
2018-05-16T18:28:03.789Z,8.97
2018-05-16T18:29:41.499Z,8.37
2018-05-16T18:31:19.885Z,8.67
2018-05-16T18:32:55.902Z,8.63
2018-05-16T18:34:31.344Z,7.63
2018-05-16T18:36:06.883Z,8.30
2018-05-16T18:37:40.809Z,8.20
2018-05-16T18:39:14.692Z,7.47
2018-05-16T18:40:50.090Z,8.33
2018-05-16T18:42:24.908Z,7.70
2018-05-16T18:44:00.184Z,8.93
2018-05-16T18:45:36.614Z,8.80
2018-05-16T18:47:13.089Z,8.80
2018-05-16T18:48:48.506Z,10.50
2018-05-16T18:50:23.839Z,9.17
2018-05-16T18:53:39.765Z,8.47
2018-05-16T18:55:16.801Z,8.40
2018-05-16T18:56:50.686Z,7.83
2018-05-16T18:58:25.471Z,8.07
2018-05-16T18:59:59.608Z,8.70
2018-05-16T19:01:34.405Z,9.07
2018-05-16T19:03:09.393Z,8.10
2018-05-16T19:04:43.804Z,7.40
2018-05-16T19:06:18.606Z,7.10
2018-05-16T19:07:53.635Z,7.93
2018-05-16T19:09:29.014Z,7.40
2018-05-16T19:11:03.567Z,6.87
2018-05-16T19:12:40.757Z,7.97
2018-05-16T19:14:15.358Z,7.43
2018-05-16T19:15:54.170Z,7.43
2018-05-16T19:17:31.114Z,7.40
2018-05-16T19:20:56.830Z,6.77
2018-05-16T19:22:38.511Z,6.97
2018-05-16T19:24:13.977Z,6.63
2018-05-16T19:25:50.626Z,7.80
2018-05-16T19:27:24.562Z,7.37
2018-05-16T19:28:59.233Z,7.57
2018-05-16T19:30:45.299Z,6.70
2018-05-16T19:32:21.817Z,7.00
2018-05-16T19:33:57.721Z,7.77
2018-05-16T19:35:32.049Z,6.67
2018-05-16T19:37:06.525Z,7.53
2018-05-16T19:38:48.080Z,6.90
2018-05-16T19:40:24.924Z,7.60
2018-05-16T19:42:07.621Z,7.93
2018-05-16T19:43:43.625Z,7.80
2018-05-16T19:45:17.580Z,7.73
2018-05-16T19:46:53.167Z,7.80
2018-05-16T19:48:28.694Z,7.80
2018-05-16T19:50:03.399Z,7.23
2018-05-16T19:51:37.312Z,6.63
2018-05-16T19:53:11.493Z,7.20
2018-05-16T19:54:46.142Z,7.90
2018-05-16T19:56:21.964Z,8.03
2018-05-16T19:57:55.866Z,6.80
2018-05-16T19:59:31.588Z,7.23
2018-05-16T20:01:06.546Z,8.00
2018-05-16T20:02:41.365Z,7.10
2018-05-16T20:04:15.221Z,7.50
2018-05-16T20:05:49.095Z,9.40
2018-05-16T20:07:23.004Z,6.73
2018-05-16T20:08:59.157Z,7.03
2018-05-16T20:10:34.993Z,6.90
2018-05-16T20:12:09.360Z,6.60
2018-05-16T20:13:45.581Z,7.23
2018-05-16T20:15:19.767Z,7.50
2018-05-16T20:16:53.628Z,7.43
2018-05-16T20:18:27.526Z,7.50
2018-05-16T20:20:02.253Z,7.30
2018-05-16T20:21:37.201Z,6.77
2018-05-16T20:23:11.091Z,6.90
2018-05-16T20:24:45.929Z,7.00
2018-05-16T20:26:22.452Z,7.50
2018-05-16T20:27:57.059Z,6.13
2018-05-16T20:29:31.034Z,6.73
2018-05-16T20:31:05.915Z,7.60
2018-05-16T20:32:40.530Z,7.10
2018-05-16T20:34:15.918Z,7.30
2018-05-16T20:35:50.721Z,6.60
2018-05-16T20:37:24.589Z,6.40
2018-05-16T20:38:59.107Z,6.67
2018-05-16T20:40:34.062Z,6.37
2018-05-16T20:42:09.593Z,6.37
2018-05-16T20:43:46.053Z,6.67
2018-05-16T20:45:20.055Z,6.90
2018-05-16T20:47:02.097Z,7.40
2018-05-16T20:48:35.989Z,7.53
2018-05-16T20:50:12.179Z,7.80
2018-05-16T20:51:46.507Z,6.87
2018-05-16T20:53:21.029Z,6.87
2018-05-16T20:54:56.992Z,6.53
2018-05-16T20:56:30.897Z,6.87
2018-05-16T20:58:05.532Z,6.77
2018-05-16T20:59:41.129Z,7.27
2018-05-16T21:01:17.802Z,6.63
2018-05-16T21:02:52.474Z,9.60
2018-05-16T21:04:26.980Z,6.70
2018-05-16T21:06:02.741Z,6.70
2018-05-16T21:07:37.278Z,7.40
2018-05-16T21:09:13.598Z,5.90
2018-05-16T21:10:50.126Z,6.20
2018-05-16T21:12:24.043Z,6.27
2018-05-16T21:13:59.949Z,6.30
2018-05-16T21:15:34.582Z,6.03
2018-05-16T21:17:08.968Z,5.70
2018-05-16T21:18:46.812Z,6.20
2018-05-16T21:20:21.189Z,5.47
2018-05-16T21:21:55.470Z,5.20
2018-05-16T21:23:29.765Z,5.33
2018-05-16T21:25:04.055Z,5.30
2018-05-16T21:26:38.417Z,5.23
2018-05-16T21:28:12.875Z,5.60
2018-05-16T21:29:51.281Z,5.50
2018-05-16T21:31:26.821Z,6.20
2018-05-16T21:33:00.713Z,5.80
2018-05-16T21:34:34.601Z,5.40
2018-05-16T21:36:08.760Z,5.43
2018-05-16T21:37:43.444Z,5.00
2018-05-16T21:43:27.563Z,5.33
2018-05-16T21:45:01.486Z,5.60
2018-05-16T21:46:36.308Z,5.47
2018-05-16T21:48:10.170Z,5.50
2018-05-16T21:49:44.322Z,5.20
2018-05-16T21:51:19.616Z,4.77
2018-05-16T21:52:54.358Z,5.43
2018-05-16T21:54:28.235Z,4.90
2018-05-16T21:56:02.206Z,5.17
2018-05-16T21:57:36.053Z,5.10
2018-05-16T21:59:09.960Z,5.83
2018-05-16T22:00:43.864Z,5.47
2018-05-16T22:02:18.970Z,5.67
2018-05-16T22:03:56.659Z,5.53
2018-05-16T22:05:30.537Z,5.30
2018-05-16T22:09:10.033Z,4.90
2018-05-16T22:10:57.893Z,5.70
2018-05-16T22:12:32.560Z,5.50
2018-05-16T22:14:06.466Z,5.53
2018-05-16T22:15:40.732Z,4.87
2018-05-16T22:17:15.213Z,4.50
2018-05-16T22:18:50.338Z,4.87
2018-05-16T22:20:28.092Z,4.47
2018-05-16T22:22:03.245Z,4.70
2018-05-16T22:23:37.202Z,5.07
2018-05-16T22:25:11.073Z,5.00
2018-05-16T22:26:46.168Z,5.10
2018-05-16T22:28:20.060Z,5.17
2018-05-16T22:29:55.777Z,4.87
2018-05-16T22:31:36.531Z,5.07
2018-05-16T22:33:17.597Z,4.93
2018-05-16T22:34:59.446Z,4.87
2018-05-16T22:36:40.344Z,4.70
2018-05-16T22:38:19.905Z,5.50
2018-05-16T22:39:59.340Z,5.30
2018-05-16T22:41:40.174Z,5.33
2018-05-16T22:43:13.593Z,5.60
2018-05-16T22:57:27.928Z,6.90
2018-05-16T22:59:02.482Z,6.00
2018-05-16T23:00:37.867Z,6.60
2018-05-16T23:02:11.746Z,6.50
2018-05-16T23:03:46.152Z,5.77
2018-05-16T23:05:21.170Z,7.00
2018-05-16T23:06:57.447Z,6.60
2018-05-16T23:08:33.818Z,6.73
2018-05-16T23:10:09.165Z,6.17
2018-05-16T23:11:44.353Z,6.53
2018-05-16T23:13:18.955Z,6.07
2018-05-16T23:14:52.852Z,6.27
2018-05-16T23:16:26.764Z,6.77
2018-05-16T23:20:07.015Z,6.80
2018-05-16T23:21:42.246Z,7.43
2018-05-16T23:23:16.124Z,6.53
2018-05-16T23:24:51.680Z,7.13
2018-05-16T23:26:25.561Z,6.57
2018-05-16T23:28:00.178Z,6.80
2018-05-16T23:29:35.316Z,6.07
2018-05-16T23:31:11.045Z,6.57
2018-05-16T23:32:46.119Z,6.40
2018-05-16T23:34:22.320Z,7.17
2018-05-16T23:35:57.020Z,6.80
2018-05-16T23:37:30.934Z,6.97
2018-05-16T23:39:07.496Z,6.30
2018-05-16T23:40:42.088Z,7.00
2018-05-16T23:42:18.035Z,6.40
2018-05-16T23:43:51.922Z,7.03
2018-05-16T23:45:26.642Z,6.80
2018-05-16T23:47:00.561Z,6.50
2018-05-16T23:48:36.689Z,6.43
2018-05-16T23:50:13.361Z,7.33
2018-05-16T23:51:48.206Z,7.13
2018-05-16T23:53:22.610Z,7.70
2018-05-16T23:54:56.548Z,7.23
2018-05-16T23:56:30.457Z,6.97
2018-05-16T23:58:04.382Z,7.80
2018-05-16T23:59:39.955Z,7.80
